createdAt,value
2022-10-17T00:00:31.648Z,0
2022-10-17T00:15:31.595Z,0
2022-10-17T00:30:31.604Z,0
2022-10-17T00:45:31.551Z,0
2022-10-17T01:00:31.562Z,0
2022-10-17T01:15:31.501Z,0
2022-10-17T01:30:31.516Z,0
2022-10-17T01:45:31.467Z,0
2022-10-17T02:00:31.446Z,0
2022-10-17T02:15:31.402Z,0
2022-10-17T02:30:31.434Z,0
2022-10-17T02:45:31.372Z,0
2022-10-17T03:00:31.365Z,0
2022-10-17T03:15:31.323Z,0
2022-10-17T03:30:31.309Z,0
2022-10-17T03:45:31.331Z,0
2022-10-17T04:00:31.297Z,0
2022-10-17T04:15:31.252Z,0
2022-10-17T04:30:31.229Z,0
2022-10-17T04:45:31.222Z,0
2022-10-17T05:00:31.194Z,0
2022-10-17T05:15:31.177Z,0
2022-10-17T05:30:35.112Z,0
2022-10-17T05:45:31.099Z,0
2022-10-17T06:00:31.118Z,0
2022-10-17T06:15:31.095Z,0
2022-10-17T06:30:31.079Z,0
2022-10-17T06:45:31.013Z,0
2022-10-17T07:00:31.146Z,1
2022-10-17T07:15:30.976Z,0
2022-10-17T07:30:30.976Z,0
2022-10-17T07:45:30.910Z,0
2022-10-17T08:00:30.927Z,0
2022-10-17T08:15:31.993Z,0
2022-10-17T08:30:30.846Z,0
2022-10-17T08:45:30.812Z,0
2022-10-17T09:00:30.800Z,0
2022-10-17T09:15:30.760Z,0
2022-10-17T09:30:44.680Z,0
2022-10-17T09:45:30.696Z,1
2022-10-17T10:00:30.756Z,0
2022-10-17T10:15:30.649Z,0
2022-10-17T10:30:32.085Z,0
2022-10-17T10:45:47.883Z,1
2022-10-17T11:00:30.695Z,0
2022-10-17T11:15:30.558Z,1
2022-10-17T11:30:30.517Z,0
2022-10-17T11:45:30.472Z,0
2022-10-17T12:00:30.465Z,0
2022-10-17T12:15:30.438Z,0
2022-10-17T12:30:30.405Z,0
2022-10-17T12:45:30.366Z,0
2022-10-17T13:00:30.419Z,15
2022-10-17T13:15:30.305Z,76
2022-10-17T13:30:32.097Z,135
2022-10-17T13:45:30.257Z,1
2022-10-17T14:00:30.335Z,171
2022-10-17T14:15:30.224Z,105
2022-10-17T14:30:56.292Z,68
2022-10-17T14:45:30.139Z,189
2022-10-17T15:00:30.147Z,58
2022-10-17T15:30:30.080Z,209
2022-10-17T15:45:30.071Z,237
2022-10-17T16:00:30.131Z,89
2022-10-17T16:15:30.025Z,49
2022-10-17T16:30:29.990Z,149
2022-10-17T16:45:29.962Z,55
2022-10-17T17:00:29.995Z,210
2022-10-17T17:15:29.894Z,191
2022-10-17T17:45:29.873Z,14
2022-10-17T18:00:29.847Z,1
2022-10-17T18:15:29.826Z,0
2022-10-17T18:30:32.294Z,0
2022-10-17T18:45:29.771Z,0
2022-10-17T19:00:29.750Z,0
2022-10-17T19:15:29.715Z,0
2022-10-17T19:30:29.661Z,0
2022-10-17T20:00:29.647Z,0
2022-10-17T20:15:29.601Z,0
2022-10-17T20:30:29.561Z,0
2022-10-17T20:45:43.776Z,0
2022-10-17T21:00:29.532Z,0
2022-10-17T21:15:29.484Z,0
2022-10-17T21:30:29.476Z,0
2022-10-17T21:45:29.442Z,2
2022-10-17T22:00:29.437Z,2
2022-10-17T22:15:29.374Z,0
2022-10-17T22:30:29.354Z,0
2022-10-17T22:45:29.324Z,0
2022-10-17T23:15:29.269Z,0
2022-10-17T23:30:29.264Z,1
2022-10-17T23:45:31.299Z,1
